Bonaire, Georgia
Current Conditions -  °F | °C
As of 5:58 AM on Friday 28 Nov 2014 (Local Time) from KWRB Reporting Station
Clear Clear  
Wind Chill: 31°   Ceiling: Unl
Heat Index: 31°   Visibility: 10mi
Dew Point: 26°   Wind: 3mph
Humidity: 80%   Direction: 340°NNW
Pressure: 30.38"   Gusts: NA
Location:  32.54°N, 83.6°W
Report Text: KWRB 281058Z AUTO 34003KT 10SM CLR M01/M04 A3038 RMK AO2 SLP292 T10061036
Loading
Personal Weather Stations






























Interactive Weather Map New forecast layout! Learn more

10-Day Weather Forecast

Advertisements
Track Severe Weather on mobile